createdAt,value
2023-03-18T00:01:04.181Z,6.80
2023-03-18T00:03:32.558Z,6.50
2023-03-18T00:06:18.593Z,6.45
2023-03-18T00:08:47.393Z,6.82
2023-03-18T00:11:16.559Z,7.35
2023-03-18T00:13:44.414Z,7.45
2023-03-18T00:16:12.548Z,7.40
2023-03-18T00:18:40.429Z,7.35
2023-03-18T00:21:08.453Z,7.40
2023-03-18T00:23:37.159Z,7.85
2023-03-18T00:26:05.369Z,7.72
2023-03-18T00:28:32.810Z,8.20
2023-03-18T00:31:09.284Z,8.15
2023-03-18T00:33:38.258Z,7.70
2023-03-18T00:36:15.660Z,7.57
2023-03-18T00:38:45.884Z,8.57
2023-03-18T00:41:15.985Z,8.82
2023-03-18T00:43:54.574Z,7.95
2023-03-18T00:46:31.377Z,7.43
2023-03-18T00:49:01.106Z,8.10
2023-03-18T00:51:32.330Z,8.20
2023-03-18T00:54:02.094Z,7.85
2023-03-18T00:56:31.993Z,6.93
2023-03-18T00:59:00.240Z,6.97
2023-03-18T01:01:28.661Z,6.62
2023-03-18T01:03:56.551Z,6.95
2023-03-18T01:06:28.461Z,7.10
2023-03-18T01:08:57.156Z,6.82
2023-03-18T01:11:25.407Z,6.90
2023-03-18T01:13:53.212Z,5.95
2023-03-18T01:16:21.720Z,6.50
2023-03-18T01:18:49.396Z,7.10
2023-03-18T01:21:18.119Z,6.53
2023-03-18T01:23:46.999Z,5.95
2023-03-18T01:26:14.783Z,6.80
2023-03-18T01:28:43.067Z,6.15
2023-03-18T01:31:12.593Z,7.03
2023-03-18T01:33:41.531Z,6.55
2023-03-18T01:36:09.475Z,7.50
2023-03-18T01:38:37.701Z,7.05
2023-03-18T01:41:07.069Z,7.40
2023-03-18T01:43:37.036Z,7.25
2023-03-18T01:46:27.875Z,7.82
2023-03-18T01:48:55.476Z,7.28
2023-03-18T01:51:24.370Z,6.37
2023-03-18T01:53:52.340Z,7.00
2023-03-18T01:56:21.032Z,6.43
2023-03-18T01:58:52.388Z,5.85
2023-03-18T02:01:20.147Z,6.12
2023-03-18T02:03:48.496Z,5.80
2023-03-18T02:06:16.180Z,5.57
2023-03-18T02:08:44.287Z,5.40
2023-03-18T02:11:12.322Z,5.72
2023-03-18T02:13:42.557Z,5.45
2023-03-18T02:16:16.446Z,5.32
2023-03-18T02:18:49.446Z,6.12
2023-03-18T02:21:42.547Z,5.22
2023-03-18T02:24:22.671Z,5.95
2023-03-18T02:27:12.291Z,5.03
2023-03-18T02:29:42.349Z,5.40
2023-03-18T02:32:11.803Z,5.55
2023-03-18T02:34:40.888Z,5.72
2023-03-18T02:37:08.652Z,5.32
2023-03-18T02:39:36.374Z,5.53
2023-03-18T02:42:04.351Z,5.95
2023-03-18T02:44:33.482Z,5.10
2023-03-18T02:47:06.889Z,5.20
2023-03-18T02:49:34.701Z,5.25
2023-03-18T02:52:02.397Z,5.45
2023-03-18T02:54:30.800Z,5.93
2023-03-18T02:56:58.706Z,5.55
2023-03-18T02:59:26.722Z,5.65
2023-03-18T03:01:55.172Z,5.35
2023-03-18T03:04:24.351Z,6.00
2023-03-18T03:06:52.986Z,5.72
2023-03-18T03:09:22.648Z,5.80
2023-03-18T03:11:51.522Z,5.70
2023-03-18T03:14:20.012Z,6.37
2023-03-18T03:16:48.585Z,6.25
2023-03-18T03:19:17.905Z,6.30
2023-03-18T03:21:45.690Z,5.53
2023-03-18T03:24:13.202Z,5.85
2023-03-18T03:26:41.180Z,6.43
2023-03-18T03:29:08.684Z,6.87
2023-03-18T03:31:37.662Z,5.72
2023-03-18T03:34:06.921Z,6.55
2023-03-18T03:36:35.757Z,6.35
2023-03-18T03:39:04.257Z,5.60
2023-03-18T03:41:35.756Z,6.72
2023-03-18T03:44:03.287Z,5.97
2023-03-18T03:46:31.285Z,6.57
2023-03-18T03:48:59.322Z,5.47
2023-03-18T03:51:28.196Z,6.50
2023-03-18T03:53:55.727Z,6.47
2023-03-18T03:56:23.509Z,6.20
2023-03-18T03:58:50.938Z,6.87
2023-03-18T04:01:18.501Z,6.35
2023-03-18T04:03:46.435Z,6.70
2023-03-18T04:06:13.886Z,6.07
2023-03-18T04:08:43.211Z,6.55
2023-03-18T04:11:12.758Z,6.60
2023-03-18T04:13:41.864Z,6.62
2023-03-18T04:16:09.678Z,6.55
2023-03-18T04:18:37.414Z,6.55
2023-03-18T04:21:05.985Z,6.93
2023-03-18T04:23:36.255Z,7.03
2023-03-18T04:26:05.384Z,6.70
2023-03-18T04:28:33.204Z,7.10
2023-03-18T04:31:01.367Z,6.53
2023-03-18T04:33:29.106Z,7.43
2023-03-18T04:35:56.642Z,8.02
2023-03-18T04:38:24.572Z,7.03
2023-03-18T04:40:52.829Z,8.73
2023-03-18T04:43:20.306Z,8.82
2023-03-18T04:45:49.127Z,8.57
2023-03-18T04:48:17.000Z,7.90
2023-03-18T04:50:45.891Z,8.90
2023-03-18T04:53:13.890Z,7.87
2023-03-18T04:55:41.731Z,8.73
2023-03-18T04:58:09.818Z,8.70
2023-03-18T05:00:38.602Z,9.43
2023-03-18T05:03:12.692Z,8.68
2023-03-18T05:05:40.769Z,8.50
2023-03-18T05:08:10.250Z,8.50
2023-03-18T05:10:38.484Z,8.43
2023-03-18T05:13:06.352Z,8.52
2023-03-18T05:15:34.697Z,8.63
2023-03-18T05:18:02.540Z,10.65
2023-03-18T05:20:30.678Z,9.90
2023-03-18T05:22:58.667Z,9.30
2023-03-18T05:25:27.128Z,8.45
2023-03-18T05:27:54.888Z,13.43
2023-03-18T05:30:23.410Z,10.85
2023-03-18T05:32:51.558Z,13.45
2023-03-18T05:35:19.506Z,20.65
2023-03-18T05:37:47.783Z,21.33
2023-03-18T05:40:16.451Z,13.88
2023-03-18T05:42:55.832Z,24.02
2023-03-18T05:45:25.892Z,31.20
2023-03-18T05:47:54.061Z,17.92
2023-03-18T05:50:34.089Z,24.80
2023-03-18T05:53:03.766Z,13.80
2023-03-18T05:55:33.125Z,15.05
2023-03-18T05:58:01.020Z,15.32
2023-03-18T06:00:29.988Z,13.15
2023-03-18T06:03:00.130Z,16.02
2023-03-18T06:05:28.974Z,16.58
2023-03-18T06:07:56.842Z,14.70
2023-03-18T06:10:25.447Z,10.13
2023-03-18T06:12:55.383Z,10.63
2023-03-18T06:15:23.632Z,10.48
2023-03-18T06:17:51.593Z,9.55
2023-03-18T06:20:19.626Z,9.52
2023-03-18T06:22:49.762Z,10.70
2023-03-18T06:25:19.916Z,10.00
2023-03-18T06:27:48.465Z,10.23
2023-03-18T06:30:17.632Z,10.80
2023-03-18T06:32:45.496Z,9.45
2023-03-18T06:35:13.041Z,10.05
2023-03-18T06:37:40.551Z,10.38
2023-03-18T06:40:12.379Z,9.07
2023-03-18T06:42:41.489Z,10.43
2023-03-18T06:45:10.136Z,10.82
2023-03-18T06:47:39.400Z,8.50
2023-03-18T06:50:07.121Z,9.07
2023-03-18T06:52:35.385Z,8.57
2023-03-18T06:55:04.495Z,8.13
2023-03-18T06:57:32.811Z,8.48
2023-03-18T07:00:00.515Z,8.18
2023-03-18T07:02:27.944Z,7.40
2023-03-18T07:04:56.077Z,7.05
2023-03-18T07:07:24.713Z,6.55
2023-03-18T07:09:53.590Z,7.72
2023-03-18T07:12:21.333Z,8.48
2023-03-18T07:14:49.268Z,8.02
2023-03-18T07:17:19.939Z,7.37
2023-03-18T07:19:47.689Z,7.15
2023-03-18T07:22:19.304Z,7.22
2023-03-18T07:24:47.963Z,7.90
2023-03-18T07:27:16.672Z,7.97
2023-03-18T07:29:44.061Z,7.37
2023-03-18T07:32:11.525Z,7.32
2023-03-18T07:34:39.215Z,8.80
2023-03-18T07:37:06.804Z,8.13
2023-03-18T07:39:34.202Z,7.72
2023-03-18T07:42:02.164Z,7.20
2023-03-18T07:44:29.874Z,7.85
2023-03-18T07:46:57.471Z,7.95
2023-03-18T07:49:25.200Z,7.37
2023-03-18T07:51:52.592Z,7.75
2023-03-18T07:54:20.142Z,6.80
2023-03-18T07:56:48.823Z,7.05
2023-03-18T07:59:18.611Z,7.20
2023-03-18T08:01:47.055Z,6.78
2023-03-18T08:04:16.532Z,7.10
2023-03-18T08:06:45.039Z,8.27
2023-03-18T08:09:12.451Z,7.50
2023-03-18T08:11:40.370Z,7.37
2023-03-18T08:14:07.765Z,7.60
2023-03-18T08:16:35.190Z,6.93
2023-03-18T08:19:02.903Z,8.20
2023-03-18T08:21:31.677Z,7.05
2023-03-18T08:23:59.098Z,7.32
2023-03-18T08:26:26.963Z,6.82
2023-03-18T08:28:54.820Z,7.50
2023-03-18T08:31:22.414Z,8.07
2023-03-18T08:33:50.519Z,7.25
2023-03-18T08:36:18.659Z,7.15
2023-03-18T08:38:46.065Z,7.43
2023-03-18T08:41:14.533Z,7.35
2023-03-18T08:43:41.900Z,8.30
2023-03-18T08:46:09.540Z,7.35
2023-03-18T08:48:37.245Z,7.80
2023-03-18T08:51:14.677Z,7.53
2023-03-18T08:53:42.743Z,8.00
2023-03-18T08:56:10.142Z,7.60
2023-03-18T08:58:37.973Z,7.07
2023-03-18T09:01:06.132Z,6.28
2023-03-18T09:03:34.691Z,7.30
2023-03-18T09:06:03.349Z,6.68
2023-03-18T09:08:32.588Z,6.12
2023-03-18T09:11:00.115Z,7.35
2023-03-18T09:13:27.521Z,7.15
2023-03-18T09:15:55.206Z,7.62
2023-03-18T09:18:23.038Z,6.28
2023-03-18T09:20:50.582Z,6.43
2023-03-18T09:23:18.848Z,7.07
2023-03-18T09:25:46.713Z,6.95
2023-03-18T09:28:14.559Z,6.97
2023-03-18T09:30:42.666Z,6.43
2023-03-18T09:33:11.631Z,6.35
2023-03-18T09:35:39.314Z,6.25
2023-03-18T09:38:07.400Z,5.00
2023-03-18T09:40:38.400Z,5.60
2023-03-18T09:43:29.449Z,5.60
2023-03-18T09:45:57.552Z,5.60
2023-03-18T09:48:43.513Z,5.85
2023-03-18T09:51:19.160Z,5.32
2023-03-18T09:53:58.906Z,5.72
2023-03-18T09:56:30.118Z,5.68
2023-03-18T09:59:16.481Z,6.60
2023-03-18T10:01:46.619Z,6.62
2023-03-18T10:04:18.561Z,5.82
2023-03-18T10:06:47.228Z,6.85
2023-03-18T10:09:27.157Z,6.90
2023-03-18T10:12:01.688Z,5.93
2023-03-18T10:14:49.530Z,7.65
2023-03-18T10:17:22.596Z,6.18
2023-03-18T10:19:55.471Z,6.35
2023-03-18T10:22:45.396Z,6.62
2023-03-18T10:25:23.688Z,6.20
2023-03-18T10:27:57.419Z,5.12
2023-03-18T10:30:49.781Z,4.32
2023-03-18T10:33:37.289Z,4.07
2023-03-18T10:36:44.987Z,4.12
2023-03-18T10:39:18.371Z,4.85
2023-03-18T10:41:50.626Z,4.22
2023-03-18T10:44:22.173Z,4.53
2023-03-18T10:47:15.545Z,4.68
2023-03-18T10:49:47.375Z,5.18
2023-03-18T10:52:38.909Z,4.50
2023-03-18T10:55:15.928Z,4.90
2023-03-18T10:57:44.110Z,5.07
2023-03-18T11:00:29.823Z,4.93
2023-03-18T11:02:57.756Z,5.12
2023-03-18T11:05:28.396Z,5.20
2023-03-18T11:08:01.431Z,5.43
2023-03-18T11:10:36.595Z,5.05
2023-03-18T11:13:04.347Z,5.53
2023-03-18T11:15:39.294Z,5.18
2023-03-18T11:18:14.446Z,4.50
2023-03-18T11:20:45.367Z,5.10
2023-03-18T11:24:08.211Z,4.95
2023-03-18T11:26:56.249Z,5.47
2023-03-18T11:29:27.304Z,5.65
2023-03-18T11:31:58.463Z,5.03
2023-03-18T11:34:27.932Z,4.85
2023-03-18T11:37:08.329Z,5.05
2023-03-18T11:39:38.519Z,4.87
2023-03-18T11:42:32.729Z,5.80
2023-03-18T11:45:03.556Z,5.32
2023-03-18T11:47:33.125Z,4.68
2023-03-18T11:50:02.966Z,5.20
2023-03-18T11:53:14.084Z,5.70
2023-03-18T11:56:06.686Z,5.65
2023-03-18T11:58:37.162Z,5.12
2023-03-18T12:01:13.600Z,5.10
2023-03-18T12:04:04.256Z,5.15
2023-03-18T12:06:36.061Z,4.65
2023-03-18T12:09:18.539Z,5.32
2023-03-18T12:11:57.730Z,5.40
2023-03-18T12:14:30.290Z,4.78
2023-03-18T12:17:25.612Z,5.68
2023-03-18T12:20:30.735Z,5.18
2023-03-18T12:23:30.371Z,5.35
2023-03-18T12:26:01.043Z,5.35
2023-03-18T12:28:42.647Z,5.55
2023-03-18T12:31:20.288Z,5.85
2023-03-18T12:33:58.079Z,5.60
2023-03-18T12:36:33.185Z,5.97
2023-03-18T12:39:10.029Z,5.37
2023-03-18T12:41:48.989Z,5.22
2023-03-18T12:44:37.969Z,5.05
2023-03-18T12:47:12.039Z,6.47
2023-03-18T12:49:42.408Z,5.10
2023-03-18T12:52:36.011Z,5.40
2023-03-18T12:55:21.708Z,5.37
2023-03-18T12:57:54.554Z,6.18
2023-03-18T13:00:31.941Z,5.22
2023-03-18T13:03:07.433Z,5.43
2023-03-18T13:05:53.105Z,5.60
2023-03-18T13:08:26.861Z,5.28
2023-03-18T13:11:10.518Z,5.78
2023-03-18T13:13:44.602Z,5.35
2023-03-18T13:16:13.798Z,4.85
2023-03-18T13:18:44.851Z,4.55
2023-03-18T13:21:17.532Z,5.03
2023-03-18T13:24:16.750Z,5.25
2023-03-18T13:27:20.146Z,5.82
2023-03-18T13:29:50.803Z,6.00
2023-03-18T13:32:24.583Z,6.05
2023-03-18T13:35:13.189Z,5.30
2023-03-18T13:37:46.711Z,4.85
2023-03-18T13:40:42.997Z,5.95
2023-03-18T13:43:18.533Z,6.30
2023-03-18T13:45:49.529Z,6.03
2023-03-18T13:48:18.537Z,5.20
2023-03-18T13:50:48.713Z,5.20
2023-03-18T13:53:28.790Z,5.45
2023-03-18T13:55:56.627Z,6.53
2023-03-18T13:58:27.767Z,5.87
2023-03-18T14:00:55.075Z,5.20
2023-03-18T14:03:52.138Z,5.78
2023-03-18T14:06:36.849Z,5.22
2023-03-18T14:09:30.710Z,5.12
2023-03-18T14:12:17.037Z,6.10
2023-03-18T14:14:51.395Z,5.82
2023-03-18T14:17:38.976Z,6.32
2023-03-18T14:20:17.068Z,5.18
2023-03-18T14:22:49.881Z,5.40
2023-03-18T14:25:17.466Z,5.22
2023-03-18T14:27:58.293Z,5.30
2023-03-18T14:30:32.262Z,5.05
2023-03-18T14:33:03.175Z,4.75
2023-03-18T14:36:15.736Z,4.82
2023-03-18T14:38:57.364Z,4.70
2023-03-18T14:41:29.632Z,4.30
2023-03-18T14:44:21.527Z,4.62
2023-03-18T14:46:58.183Z,4.90
2023-03-18T14:49:37.101Z,4.55
2023-03-18T14:52:22.616Z,4.25
2023-03-18T14:54:51.315Z,4.65
2023-03-18T14:57:22.308Z,4.62
2023-03-18T14:59:49.720Z,4.22
2023-03-18T15:02:46.457Z,4.50
2023-03-18T15:05:17.723Z,5.00
2023-03-18T15:07:50.530Z,4.72
2023-03-18T15:10:26.319Z,4.57
2023-03-18T15:13:14.897Z,4.35
2023-03-18T15:15:42.781Z,5.07
2023-03-18T15:18:19.262Z,4.78
2023-03-18T15:20:49.795Z,4.00
2023-03-18T15:23:20.711Z,4.03
2023-03-18T15:25:49.402Z,4.40
2023-03-18T15:28:23.794Z,4.57
2023-03-18T15:30:54.531Z,4.12
2023-03-18T15:33:24.749Z,4.25
2023-03-18T15:35:58.025Z,4.20
2023-03-18T15:38:28.330Z,4.85
2023-03-18T15:41:00.512Z,4.50
2023-03-18T15:43:35.570Z,4.35
2023-03-18T15:46:16.727Z,4.28
2023-03-18T15:48:54.154Z,5.12
2023-03-18T15:51:56.310Z,5.82
2023-03-18T16:45:47.306Z,5.40
2023-03-18T16:48:18.644Z,5.03
2023-03-18T16:50:48.191Z,5.15
2023-03-18T16:53:36.165Z,5.00
2023-03-18T16:56:15.045Z,4.40
2023-03-18T16:58:45.428Z,5.03
2023-03-18T17:01:17.088Z,5.45
2023-03-18T17:03:46.013Z,6.00
2023-03-18T17:06:14.673Z,5.03
2023-03-18T17:08:42.615Z,5.18
2023-03-18T17:11:18.269Z,5.18
2023-03-18T17:13:45.998Z,5.22
2023-03-18T17:16:20.068Z,6.55
2023-03-18T17:18:48.228Z,5.70
2023-03-18T17:21:17.140Z,5.60
2023-03-18T17:23:48.054Z,6.20
2023-03-18T17:26:16.299Z,6.30
2023-03-18T17:28:46.537Z,5.78
2023-03-18T17:31:14.900Z,5.45
2023-03-18T17:33:43.582Z,5.45
2023-03-18T17:36:11.630Z,5.35
2023-03-18T17:38:39.188Z,6.28
2023-03-18T17:41:16.103Z,6.12
2023-03-18T17:43:44.312Z,6.37
2023-03-18T17:46:12.473Z,6.68
2023-03-18T17:48:41.116Z,6.78
2023-03-18T17:51:20.816Z,6.80
2023-03-18T17:53:52.161Z,7.05
2023-03-18T17:56:20.796Z,6.80
2023-03-18T17:58:51.898Z,7.28
2023-03-18T18:01:30.252Z,7.50
2023-03-18T18:04:02.211Z,8.18
2023-03-18T18:06:32.936Z,8.27
2023-03-18T18:09:02.900Z,7.10
2023-03-18T18:11:39.576Z,8.48
2023-03-18T18:14:26.519Z,12.07
2023-03-18T18:16:57.079Z,8.77
2023-03-18T18:19:26.140Z,7.78
2023-03-18T18:21:55.373Z,7.90
2023-03-18T18:24:26.081Z,8.88
2023-03-18T18:26:55.097Z,8.30
2023-03-18T18:29:25.313Z,8.20
2023-03-18T18:31:53.275Z,9.68
2023-03-18T18:34:23.773Z,10.35
2023-03-18T18:36:53.174Z,10.63
2023-03-18T18:39:23.412Z,9.43
2023-03-18T18:41:54.104Z,9.95
2023-03-18T18:44:23.358Z,9.48
2023-03-18T18:46:52.438Z,9.27
2023-03-18T18:49:27.369Z,10.30
2023-03-18T18:51:58.097Z,10.15
2023-03-18T18:54:28.591Z,9.50
2023-03-18T18:56:58.095Z,9.82
2023-03-18T18:59:29.129Z,9.57
2023-03-18T19:02:01.224Z,10.02
2023-03-18T19:04:30.741Z,9.65
2023-03-18T19:07:01.404Z,9.55
2023-03-18T19:09:29.468Z,9.45
2023-03-18T19:11:58.270Z,10.63
2023-03-18T19:14:29.569Z,9.52
2023-03-18T19:16:59.266Z,9.15
2023-03-18T19:19:30.182Z,10.02
2023-03-18T19:21:58.342Z,10.27
2023-03-18T19:24:32.298Z,10.13
2023-03-18T19:27:26.675Z,9.13
2023-03-18T19:29:59.947Z,10.40
2023-03-18T19:32:34.488Z,10.77
2023-03-18T19:35:06.091Z,11.23
2023-03-18T19:37:42.297Z,10.50
2023-03-18T19:40:30.392Z,12.60
2023-03-18T19:43:03.673Z,12.00
2023-03-18T19:45:32.628Z,11.75
2023-03-18T19:48:01.085Z,11.25
2023-03-18T19:50:30.905Z,12.57
2023-03-18T19:53:01.258Z,12.57
2023-03-18T19:55:30.492Z,12.82
2023-03-18T19:58:00.362Z,13.00
2023-03-18T20:00:29.743Z,12.70
2023-03-18T20:02:58.794Z,12.07
2023-03-18T20:05:27.827Z,11.85
2023-03-18T20:07:57.278Z,10.80
2023-03-18T20:10:26.653Z,12.10
2023-03-18T20:12:55.224Z,11.00
2023-03-18T20:15:27.522Z,11.65
2023-03-18T20:17:58.832Z,11.45
2023-03-18T20:20:31.857Z,10.55
2023-03-18T20:23:07.634Z,10.70
2023-03-18T20:25:42.408Z,10.93
2023-03-18T20:28:19.202Z,10.47
2023-03-18T20:33:16.476Z,11.55
2023-03-18T20:35:47.959Z,11.38
2023-03-18T20:38:27.064Z,11.12
2023-03-18T20:40:59.463Z,11.00
2023-03-18T20:43:29.262Z,10.82
2023-03-18T20:45:59.895Z,10.60
2023-03-18T20:48:34.266Z,10.55
2023-03-18T20:51:32.149Z,10.18
2023-03-18T20:54:01.360Z,10.70
2023-03-18T20:56:33.217Z,10.27
2023-03-18T20:59:05.859Z,9.65
2023-03-18T21:01:35.794Z,9.55
2023-03-18T21:04:04.830Z,10.10
2023-03-18T21:06:33.093Z,9.77
2023-03-18T21:09:01.676Z,9.90
2023-03-18T21:11:33.184Z,10.85
2023-03-18T21:14:01.401Z,10.68
2023-03-18T21:16:34.335Z,10.15
2023-03-18T21:19:04.423Z,10.00
2023-03-18T21:21:38.657Z,12.15
2023-03-18T21:24:27.501Z,11.12
2023-03-18T21:27:05.485Z,11.80
2023-03-18T21:29:34.222Z,11.63
2023-03-18T21:32:02.805Z,11.60
2023-03-18T21:34:31.706Z,11.50
2023-03-18T21:36:59.504Z,10.63
2023-03-18T21:39:28.247Z,10.77
2023-03-18T21:41:57.566Z,10.32
2023-03-18T21:44:29.108Z,10.80
2023-03-18T21:46:57.517Z,10.52
2023-03-18T21:49:25.817Z,10.25
2023-03-18T21:51:56.844Z,11.02
2023-03-18T21:54:26.132Z,10.40
2023-03-18T21:56:53.810Z,9.25
2023-03-18T21:59:21.755Z,10.65
2023-03-18T22:01:49.941Z,11.12
2023-03-18T22:04:18.140Z,9.45
2023-03-18T22:06:45.666Z,9.98
2023-03-18T22:09:13.069Z,10.25
2023-03-18T22:11:40.802Z,10.60
2023-03-18T22:14:12.184Z,10.00
2023-03-18T22:16:39.779Z,10.93
2023-03-18T22:19:07.472Z,10.10
2023-03-18T22:21:34.885Z,10.32
2023-03-18T22:24:02.311Z,10.77
2023-03-18T22:26:30.054Z,11.00
2023-03-18T22:28:57.467Z,11.25
2023-03-18T22:31:26.643Z,11.25
2023-03-18T22:33:54.887Z,10.55
2023-03-18T22:36:22.640Z,10.38
2023-03-18T22:38:50.167Z,11.88
2023-03-18T22:41:36.174Z,11.70
2023-03-18T22:44:06.421Z,11.73
2023-03-18T22:46:35.669Z,11.18
2023-03-18T22:49:08.103Z,12.32
2023-03-18T22:51:37.065Z,12.27
2023-03-18T22:54:04.506Z,12.50
2023-03-18T22:56:32.496Z,12.32
2023-03-18T22:59:02.978Z,11.75
2023-03-18T23:01:31.169Z,11.23
2023-03-18T23:04:01.181Z,11.75
2023-03-18T23:06:29.887Z,12.13
2023-03-18T23:08:57.285Z,11.95
2023-03-18T23:11:24.766Z,13.20
2023-03-18T23:13:53.909Z,12.02
2023-03-18T23:16:23.261Z,12.37
2023-03-18T23:18:51.184Z,13.23
2023-03-18T23:21:21.278Z,12.23
2023-03-18T23:23:49.184Z,13.52
2023-03-18T23:26:17.075Z,12.85
2023-03-18T23:28:45.837Z,14.35
2023-03-18T23:31:14.895Z,14.05
2023-03-18T23:33:42.685Z,14.15
2023-03-18T23:36:10.848Z,14.35
2023-03-18T23:38:38.304Z,14.38
2023-03-18T23:41:07.219Z,13.48
2023-03-18T23:43:35.010Z,14.60
2023-03-18T23:46:03.797Z,13.55
2023-03-18T23:48:31.546Z,14.48
2023-03-18T23:51:03.637Z,13.80
2023-03-18T23:53:31.065Z,15.02
2023-03-18T23:55:58.745Z,15.00
2023-03-18T23:58:26.308Z,13.48
